createdAt,value
2017-09-09T00:00:38.082Z,0
2017-09-09T00:01:18.665Z,0
2017-09-09T00:01:59.237Z,0
2017-09-09T00:02:39.808Z,0
2017-09-09T00:03:20.379Z,0
2017-09-09T00:04:00.957Z,0
2017-09-09T00:04:41.536Z,0
2017-09-09T00:05:22.113Z,0
2017-09-09T00:06:02.692Z,0
2017-09-09T00:06:43.266Z,0
2017-09-09T00:07:23.842Z,0
2017-09-09T00:08:04.429Z,0
2017-09-09T00:08:45.005Z,0
2017-09-09T00:09:25.587Z,0
2017-09-09T00:10:06.167Z,0
2017-09-09T00:10:46.743Z,0
2017-09-09T00:11:27.322Z,0
2017-09-09T00:12:07.899Z,0
2017-09-09T00:12:48.478Z,0
2017-09-09T00:13:29.051Z,0
2017-09-09T00:14:09.625Z,0
2017-09-09T00:14:50.203Z,0
2017-09-09T00:15:30.784Z,0
2017-09-09T00:16:11.356Z,0
2017-09-09T00:16:51.935Z,0
2017-09-09T00:17:32.520Z,0
2017-09-09T00:18:13.103Z,0
2017-09-09T00:18:53.675Z,0
2017-09-09T00:19:34.266Z,0
2017-09-09T00:20:14.847Z,0
2017-09-09T00:20:55.424Z,0
2017-09-09T00:21:36.004Z,0
2017-09-09T00:22:16.582Z,0
2017-09-09T00:22:57.157Z,0
2017-09-09T00:23:37.749Z,0
2017-09-09T00:24:18.322Z,0
2017-09-09T00:24:58.898Z,0
2017-09-09T00:25:39.485Z,0
2017-09-09T00:26:20.068Z,0
2017-09-09T00:27:00.643Z,0
2017-09-09T00:27:41.213Z,0
2017-09-09T00:28:21.814Z,0
2017-09-09T00:29:02.387Z,0
2017-09-09T00:29:42.975Z,0
2017-09-09T00:30:23.541Z,0
2017-09-09T00:31:04.125Z,0
2017-09-09T00:31:44.708Z,0
2017-09-09T00:32:25.283Z,0
2017-09-09T00:33:05.848Z,0
2017-09-09T00:33:46.432Z,0
2017-09-09T00:34:27.010Z,0
2017-09-09T00:35:07.595Z,0
2017-09-09T00:35:48.176Z,0
2017-09-09T00:36:28.757Z,0
2017-09-09T00:37:09.338Z,0
2017-09-09T00:37:49.905Z,0
2017-09-09T00:40:23.117Z,0
2017-09-09T00:41:03.714Z,0
2017-09-09T00:41:44.268Z,0
2017-09-09T00:42:24.858Z,0
2017-09-09T00:43:05.431Z,0
2017-09-09T00:43:46.018Z,0
2017-09-09T00:44:26.600Z,0
2017-09-09T00:45:07.160Z,0
2017-09-09T00:45:47.741Z,0
2017-09-09T00:46:28.314Z,0
2017-09-09T00:47:08.888Z,0
2017-09-09T00:47:49.464Z,0
2017-09-09T00:48:30.040Z,0
2017-09-09T00:49:10.612Z,0
2017-09-09T00:49:51.189Z,0
2017-09-09T00:50:31.761Z,0
2017-09-09T00:51:12.356Z,0
2017-09-09T00:51:52.923Z,0
2017-09-09T00:52:33.508Z,0
2017-09-09T00:53:14.075Z,0
2017-09-09T00:53:54.659Z,0
2017-09-09T00:54:35.236Z,0
2017-09-09T00:55:15.818Z,0
2017-09-09T00:55:56.396Z,0
2017-09-09T00:56:36.963Z,0
2017-09-09T00:57:17.556Z,0
2017-09-09T00:57:58.133Z,0
2017-09-09T00:58:38.715Z,0
2017-09-09T00:59:19.287Z,0
2017-09-09T00:59:59.866Z,0
2017-09-09T01:00:40.434Z,0
2017-09-09T01:01:21.016Z,0
2017-09-09T01:02:01.594Z,0
2017-09-09T01:02:42.167Z,0
2017-09-09T01:03:22.744Z,0
2017-09-09T01:04:03.319Z,0
2017-09-09T01:04:43.903Z,0
2017-09-09T01:05:24.481Z,0
2017-09-09T01:06:05.051Z,0
2017-09-09T01:06:45.638Z,0
2017-09-09T01:07:26.205Z,0
2017-09-09T01:08:06.778Z,0
2017-09-09T01:08:47.357Z,0
2017-09-09T01:09:27.928Z,0
2017-09-09T01:10:08.506Z,0
2017-09-09T01:10:49.081Z,0
2017-09-09T01:11:29.646Z,0
2017-09-09T01:12:10.220Z,0
2017-09-09T01:12:50.805Z,0
2017-09-09T01:13:31.388Z,0
2017-09-09T01:14:11.957Z,0
2017-09-09T01:14:52.518Z,0
2017-09-09T01:15:33.095Z,0
2017-09-09T01:16:13.673Z,0
2017-09-09T01:16:54.252Z,0
2017-09-09T01:17:34.825Z,0
2017-09-09T01:18:15.413Z,0
2017-09-09T01:18:55.989Z,0
2017-09-09T01:19:36.569Z,0
2017-09-09T01:20:17.152Z,0
2017-09-09T01:20:57.730Z,0
2017-09-09T01:21:38.309Z,0
2017-09-09T01:22:18.884Z,0
2017-09-09T01:22:59.459Z,0
2017-09-09T01:23:40.045Z,0
2017-09-09T01:24:20.618Z,0
2017-09-09T01:25:01.190Z,0
2017-09-09T01:25:41.769Z,0
2017-09-09T01:26:22.353Z,0
2017-09-09T01:27:02.929Z,0
2017-09-09T01:27:43.505Z,0
2017-09-09T01:28:24.092Z,0
2017-09-09T01:29:04.677Z,0
2017-09-09T01:29:45.249Z,0
2017-09-09T01:30:25.834Z,0
2017-09-09T01:31:06.414Z,0
2017-09-09T01:33:04.154Z,0
2017-09-09T01:33:44.734Z,0
2017-09-09T01:34:25.310Z,0
2017-09-09T01:35:05.893Z,0
2017-09-09T01:35:46.471Z,0
2017-09-09T01:36:27.049Z,0
2017-09-09T01:37:07.620Z,0
2017-09-09T01:37:48.194Z,0
2017-09-09T01:38:28.762Z,0
2017-09-09T01:39:09.351Z,0
2017-09-09T01:39:49.927Z,0
2017-09-09T01:40:30.503Z,0
2017-09-09T01:41:11.083Z,0
2017-09-09T01:41:51.667Z,0
2017-09-09T01:42:32.231Z,0
2017-09-09T01:43:12.810Z,0
2017-09-09T01:43:53.386Z,0
2017-09-09T01:44:33.961Z,0
2017-09-09T01:45:14.541Z,0
2017-09-09T01:45:55.113Z,0
2017-09-09T01:46:35.698Z,0
2017-09-09T01:47:16.268Z,0
2017-09-09T01:47:56.854Z,0
2017-09-09T01:48:37.434Z,0
2017-09-09T01:49:18.011Z,0
2017-09-09T01:49:58.593Z,0
2017-09-09T01:50:39.162Z,0
2017-09-09T01:51:19.744Z,0
2017-09-09T01:52:00.326Z,0
2017-09-09T01:52:40.908Z,0
2017-09-09T01:53:21.489Z,0
2017-09-09T01:54:02.070Z,0
2017-09-09T01:54:42.651Z,0
2017-09-09T01:55:23.236Z,0
2017-09-09T01:56:03.819Z,0
2017-09-09T01:56:44.417Z,0
2017-09-09T01:57:25.006Z,0
2017-09-09T01:58:05.572Z,0
2017-09-09T01:58:46.146Z,0
2017-09-09T01:59:26.734Z,0
2017-09-09T02:00:07.309Z,0
2017-09-09T02:00:47.887Z,0
2017-09-09T02:01:28.469Z,0
2017-09-09T02:02:09.055Z,0
2017-09-09T02:02:49.635Z,0
2017-09-09T02:03:30.211Z,0
2017-09-09T02:04:10.794Z,0
2017-09-09T02:04:51.356Z,0
2017-09-09T02:05:31.948Z,0
2017-09-09T02:06:12.521Z,0
2017-09-09T02:06:53.096Z,0
2017-09-09T02:07:33.682Z,0
2017-09-09T02:08:14.248Z,0
2017-09-09T02:08:54.827Z,0
2017-09-09T02:09:35.410Z,0
2017-09-09T02:10:15.991Z,0
2017-09-09T02:10:56.550Z,0
2017-09-09T02:11:37.126Z,0
2017-09-09T02:12:17.723Z,0
2017-09-09T02:12:58.307Z,0
2017-09-09T02:13:38.872Z,0
2017-09-09T02:14:19.455Z,0
2017-09-09T02:15:00.033Z,0
2017-09-09T02:15:40.610Z,0
2017-09-09T02:16:21.190Z,0
2017-09-09T02:17:01.773Z,0
2017-09-09T02:17:42.358Z,0
2017-09-09T02:18:22.925Z,0
2017-09-09T02:19:03.511Z,0
2017-09-09T02:19:44.082Z,0
2017-09-09T02:20:24.667Z,0
2017-09-09T02:21:05.234Z,0
2017-09-09T02:21:45.819Z,0
2017-09-09T02:22:26.404Z,0
2017-09-09T02:23:06.983Z,0
2017-09-09T02:23:47.561Z,0
2017-09-09T02:24:28.142Z,0
2017-09-09T02:25:08.724Z,0
2017-09-09T02:25:49.301Z,0
2017-09-09T02:26:29.879Z,0
2017-09-09T02:27:10.462Z,0
2017-09-09T02:27:51.037Z,0
2017-09-09T02:28:31.614Z,0
2017-09-09T02:29:12.203Z,0
2017-09-09T02:29:52.773Z,0
2017-09-09T02:30:33.358Z,0
2017-09-09T02:31:13.920Z,0
2017-09-09T02:31:54.494Z,0
2017-09-09T02:32:35.078Z,0
2017-09-09T02:33:15.653Z,0
2017-09-09T02:33:56.232Z,0
2017-09-09T02:34:51.902Z,0
2017-09-09T02:35:32.475Z,0
2017-09-09T02:36:13.056Z,0
2017-09-09T02:36:53.642Z,0
2017-09-09T02:37:34.224Z,0
2017-09-09T02:38:14.807Z,0
2017-09-09T02:38:55.388Z,0
2017-09-09T02:39:35.958Z,0
2017-09-09T02:40:16.519Z,0
2017-09-09T02:40:57.097Z,0
2017-09-09T02:41:37.680Z,0
2017-09-09T02:42:18.245Z,0
2017-09-09T02:42:58.819Z,0
2017-09-09T02:43:39.389Z,0
2017-09-09T02:44:34.547Z,0
2017-09-09T02:45:15.127Z,0
2017-09-09T02:45:55.708Z,0
2017-09-09T02:46:36.275Z,0
2017-09-09T02:47:16.858Z,0
2017-09-09T02:47:57.430Z,0
2017-09-09T02:48:38.000Z,0
2017-09-09T02:49:18.569Z,0
2017-09-09T02:49:59.150Z,0
2017-09-09T02:50:39.729Z,0
2017-09-09T02:51:20.303Z,0
2017-09-09T02:52:00.880Z,0
2017-09-09T02:52:41.458Z,0
2017-09-09T02:53:22.030Z,0
2017-09-09T02:54:02.611Z,0
2017-09-09T02:54:43.186Z,0
2017-09-09T02:55:23.761Z,0
2017-09-09T02:56:04.340Z,0
2017-09-09T02:56:45.907Z,0
2017-09-09T02:57:26.488Z,0
2017-09-09T02:58:07.078Z,0
2017-09-09T02:58:47.656Z,0
2017-09-09T02:59:28.233Z,0
2017-09-09T03:00:08.812Z,0
2017-09-09T03:00:49.382Z,0
2017-09-09T03:01:29.967Z,0
2017-09-09T03:02:10.545Z,0
2017-09-09T03:02:51.106Z,0
2017-09-09T03:03:31.694Z,0
2017-09-09T03:04:12.267Z,0
2017-09-09T03:04:52.842Z,0
2017-09-09T03:05:33.427Z,0
2017-09-09T03:06:14.004Z,0
2017-09-09T03:06:54.587Z,0
2017-09-09T03:07:35.160Z,0
2017-09-09T03:08:15.750Z,0
2017-09-09T03:08:56.329Z,0
2017-09-09T03:09:36.908Z,0
2017-09-09T03:10:17.485Z,0
2017-09-09T03:10:58.065Z,0
2017-09-09T03:11:38.645Z,0
2017-09-09T03:12:19.224Z,0
2017-09-09T03:12:59.802Z,0
2017-09-09T03:13:40.380Z,0
2017-09-09T03:14:20.968Z,0
2017-09-09T03:15:01.547Z,0
2017-09-09T03:15:42.129Z,0
2017-09-09T03:16:22.701Z,0
2017-09-09T03:17:03.279Z,0
2017-09-09T03:17:43.846Z,0
2017-09-09T03:18:24.417Z,0
2017-09-09T03:19:04.998Z,0
2017-09-09T03:19:45.576Z,0
2017-09-09T03:20:26.149Z,0
2017-09-09T03:21:06.720Z,0
2017-09-09T03:21:47.294Z,0
2017-09-09T03:22:27.880Z,0
2017-09-09T03:23:08.459Z,0
2017-09-09T03:23:49.035Z,0
2017-09-09T03:24:29.615Z,0
2017-09-09T03:25:10.206Z,0
2017-09-09T03:25:50.781Z,0
2017-09-09T03:26:31.360Z,0
2017-09-09T03:27:11.936Z,0
2017-09-09T03:27:52.526Z,0
2017-09-09T03:28:33.096Z,0
2017-09-09T03:29:13.681Z,0
2017-09-09T03:29:54.254Z,0
2017-09-09T03:30:34.830Z,0
2017-09-09T03:31:15.415Z,0
2017-09-09T03:31:56.000Z,0
2017-09-09T03:32:36.583Z,0
2017-09-09T03:33:17.163Z,0
2017-09-09T03:33:57.736Z,0
2017-09-09T03:34:38.313Z,0
2017-09-09T03:35:18.893Z,0
2017-09-09T03:35:59.469Z,0
2017-09-09T03:36:40.048Z,0
2017-09-09T03:37:20.626Z,0
2017-09-09T03:38:01.209Z,0
2017-09-09T03:38:41.789Z,0
2017-09-09T03:39:22.355Z,0
2017-09-09T03:40:09.855Z,0
2017-09-09T03:40:50.433Z,0
2017-09-09T03:41:31.011Z,0
2017-09-09T03:42:11.592Z,0
2017-09-09T03:42:52.170Z,0
2017-09-09T03:43:32.743Z,0
2017-09-09T03:44:13.329Z,0
2017-09-09T03:44:53.915Z,0
2017-09-09T03:45:34.484Z,0
2017-09-09T03:46:15.060Z,0
2017-09-09T03:46:55.632Z,0
2017-09-09T03:47:36.206Z,0
2017-09-09T03:48:16.784Z,0
2017-09-09T03:48:57.354Z,0
2017-09-09T03:51:10.212Z,0
2017-09-09T03:51:50.768Z,0
2017-09-09T03:52:31.358Z,0
2017-09-09T03:53:11.936Z,0
2017-09-09T03:53:53.202Z,0
2017-09-09T03:54:33.769Z,0
2017-09-09T03:55:14.355Z,0
2017-09-09T03:55:54.946Z,0
2017-09-09T03:56:35.535Z,0
2017-09-09T03:57:16.127Z,0
2017-09-09T03:57:56.734Z,0
2017-09-09T03:58:37.312Z,0
2017-09-09T03:59:17.893Z,0
2017-09-09T03:59:58.461Z,0
2017-09-09T04:00:39.043Z,0
2017-09-09T04:01:19.628Z,0
2017-09-09T04:02:00.198Z,0
2017-09-09T04:02:40.772Z,0
2017-09-09T04:03:21.360Z,0
2017-09-09T04:04:01.941Z,0
2017-09-09T04:04:42.514Z,0
2017-09-09T04:05:23.103Z,0
2017-09-09T04:06:03.673Z,0
2017-09-09T04:06:44.264Z,0
2017-09-09T04:07:24.840Z,0
2017-09-09T04:08:05.455Z,0
2017-09-09T04:08:46.062Z,0
2017-09-09T04:09:26.647Z,0
2017-09-09T04:10:07.230Z,0
2017-09-09T04:10:47.813Z,0
2017-09-09T04:11:28.399Z,0
2017-09-09T04:12:09.028Z,0
2017-09-09T04:12:49.622Z,0
2017-09-09T04:13:30.199Z,0
2017-09-09T04:14:10.794Z,4
2017-09-09T04:14:51.397Z,4
2017-09-09T04:15:32.020Z,4
2017-09-09T04:16:12.615Z,0
2017-09-09T04:16:53.217Z,4
2017-09-09T04:17:33.829Z,4
2017-09-09T04:18:14.416Z,4
2017-09-09T04:18:55.028Z,4
2017-09-09T04:19:35.596Z,4
2017-09-09T04:20:16.294Z,8
2017-09-09T04:20:56.895Z,8
2017-09-09T04:21:37.467Z,8
2017-09-09T04:22:18.024Z,8
2017-09-09T04:22:58.606Z,8
2017-09-09T04:23:39.209Z,12
2017-09-09T04:24:19.787Z,16
2017-09-09T04:25:00.367Z,16
2017-09-09T04:25:40.941Z,20
2017-09-09T04:26:21.541Z,16
2017-09-09T04:27:02.155Z,20
2017-09-09T04:27:42.731Z,24
2017-09-09T04:28:23.421Z,28
2017-09-09T04:29:04.175Z,28
2017-09-09T04:29:44.785Z,36
2017-09-09T04:30:25.370Z,40
2017-09-09T04:31:05.950Z,40
2017-09-09T04:31:46.534Z,48
2017-09-09T04:32:27.118Z,56
2017-09-09T04:33:07.690Z,56
2017-09-09T04:33:48.269Z,68
2017-09-09T04:34:28.954Z,72
2017-09-09T04:35:09.563Z,80
2017-09-09T04:35:50.203Z,88
2017-09-09T04:36:30.779Z,96
2017-09-09T04:37:11.383Z,108
2017-09-09T04:37:51.957Z,116
2017-09-09T04:38:32.594Z,132
2017-09-09T04:39:13.186Z,140
2017-09-09T04:39:53.790Z,156
2017-09-09T04:40:34.437Z,168
2017-09-09T04:41:15.030Z,180
2017-09-09T04:41:55.609Z,196
2017-09-09T04:42:36.211Z,208
2017-09-09T04:43:16.818Z,224
2017-09-09T04:43:58.970Z,216
2017-09-09T04:44:39.562Z,228
2017-09-09T04:45:20.152Z,244
2017-09-09T04:46:00.764Z,256
2017-09-09T04:46:41.372Z,272
2017-09-09T04:47:21.955Z,288
2017-09-09T04:48:02.526Z,308
2017-09-09T04:48:43.125Z,332
2017-09-09T04:49:23.772Z,356
2017-09-09T04:50:04.437Z,376
2017-09-09T04:50:45.018Z,396
2017-09-09T04:51:25.645Z,420
2017-09-09T04:52:06.259Z,444
2017-09-09T04:52:46.859Z,468
2017-09-09T04:53:27.441Z,492
2017-09-09T04:54:08.104Z,516
2017-09-09T04:54:48.677Z,536
2017-09-09T04:55:29.257Z,568
2017-09-09T04:56:09.865Z,592
2017-09-09T04:56:50.506Z,624
2017-09-09T04:57:31.128Z,656
2017-09-09T04:58:11.711Z,688
2017-09-09T04:58:52.312Z,720
2017-09-09T04:59:32.891Z,764
2017-09-09T05:00:13.474Z,812
2017-09-09T05:00:54.097Z,860
2017-09-09T05:01:34.697Z,904
2017-09-09T05:02:15.276Z,948
2017-09-09T05:02:55.911Z,996
2017-09-09T05:03:36.722Z,1036
2017-09-09T05:04:17.304Z,1084
2017-09-09T05:04:58.006Z,1136
2017-09-09T05:05:38.624Z,1184
2017-09-09T05:06:19.291Z,1236
2017-09-09T05:06:59.930Z,1288
2017-09-09T05:07:40.551Z,1336
2017-09-09T05:08:21.099Z,1380
2017-09-09T05:09:01.683Z,1420
2017-09-09T05:09:42.286Z,1464
2017-09-09T05:10:22.855Z,1504
2017-09-09T05:11:03.440Z,1552
2017-09-09T05:11:44.022Z,1596
2017-09-09T05:12:24.591Z,1644
2017-09-09T05:13:05.182Z,1696
2017-09-09T05:13:45.756Z,1756
2017-09-09T05:14:26.335Z,1824
2017-09-09T05:15:06.906Z,1900
2017-09-09T05:15:47.482Z,1988
2017-09-09T05:16:28.065Z,2092
2017-09-09T05:17:08.645Z,2208
2017-09-09T05:17:49.970Z,2336
2017-09-09T05:18:30.552Z,2468
2017-09-09T05:19:11.134Z,2596
2017-09-09T05:19:51.714Z,2712
2017-09-09T05:20:32.293Z,2820
2017-09-09T05:21:12.868Z,2924
2017-09-09T05:21:53.971Z,3036
2017-09-09T05:22:34.545Z,3132
2017-09-09T05:23:15.128Z,3224
2017-09-09T05:23:55.707Z,3308
2017-09-09T05:24:36.297Z,3396
2017-09-09T05:25:16.851Z,3496
2017-09-09T05:25:57.424Z,3600
2017-09-09T05:26:37.992Z,3708
2017-09-09T05:27:18.573Z,3808
2017-09-09T05:27:59.152Z,3892
2017-09-09T05:28:40.456Z,3964
2017-09-09T05:29:21.027Z,4040
2017-09-09T05:30:01.601Z,4140
2017-09-09T05:30:42.183Z,4252
2017-09-09T05:31:23.452Z,4396
2017-09-09T05:32:04.023Z,4556
2017-09-09T05:32:44.597Z,4740
2017-09-09T05:33:25.174Z,4968
2017-09-09T05:34:05.762Z,5244
2017-09-09T05:34:46.343Z,5528
2017-09-09T05:35:27.282Z,5840
2017-09-09T05:36:08.572Z,6128
2017-09-09T05:36:49.144Z,6424
2017-09-09T05:37:30.603Z,6704
2017-09-09T05:38:11.176Z,6968
2017-09-09T05:38:51.751Z,7192
2017-09-09T05:39:32.355Z,7392
2017-09-09T05:40:13.025Z,7588
2017-09-09T05:40:53.605Z,7792
2017-09-09T05:41:34.188Z,7976
2017-09-09T05:42:14.771Z,8160
2017-09-09T05:42:55.343Z,8328
2017-09-09T05:43:36.147Z,8468
2017-09-09T05:44:21.807Z,8576
2017-09-09T05:45:02.027Z,8684
2017-09-09T05:45:42.611Z,8808
2017-09-09T05:46:23.181Z,8936
2017-09-09T05:47:03.758Z,9044
2017-09-09T05:47:44.341Z,9100
2017-09-09T05:48:24.931Z,9100
2017-09-09T05:49:05.499Z,9068
2017-09-09T05:49:46.090Z,8964
2017-09-09T05:50:26.669Z,8824
2017-09-09T05:51:07.251Z,8684
2017-09-09T05:51:47.847Z,8536
2017-09-09T05:52:28.427Z,8364
2017-09-09T05:53:09.010Z,8120
2017-09-09T05:53:49.598Z,7824
2017-09-09T05:54:30.179Z,7584
2017-09-09T05:55:10.762Z,7368
2017-09-09T05:55:51.344Z,7184
2017-09-09T05:56:31.908Z,7012
2017-09-09T05:57:12.498Z,6844
2017-09-09T05:57:53.074Z,6724
2017-09-09T05:58:33.658Z,6608
2017-09-09T05:59:14.242Z,6520
2017-09-09T05:59:54.822Z,6472
2017-09-09T06:00:35.415Z,6440
2017-09-09T06:01:15.996Z,6408
2017-09-09T06:01:56.569Z,6360
2017-09-09T06:02:37.145Z,6324
2017-09-09T06:03:17.732Z,6312
2017-09-09T06:03:58.318Z,6308
2017-09-09T06:04:38.899Z,6300
2017-09-09T06:05:19.474Z,6284
2017-09-09T06:06:00.137Z,6276
2017-09-09T06:06:40.709Z,6260
2017-09-09T06:07:22.288Z,6256
2017-09-09T06:08:02.995Z,6296
2017-09-09T06:08:43.650Z,6380
2017-09-09T06:09:24.242Z,6404
2017-09-09T06:10:04.827Z,6552
2017-09-09T06:10:45.409Z,6500
2017-09-09T06:11:26.021Z,6640
2017-09-09T06:12:06.696Z,6572
2017-09-09T06:12:47.678Z,6340
2017-09-09T06:13:28.408Z,5972
2017-09-09T06:14:09.301Z,5724
2017-09-09T06:14:49.897Z,6084
2017-09-09T06:15:30.704Z,6404
2017-09-09T06:16:12.412Z,5680
2017-09-09T06:16:54.020Z,5504
2017-09-09T06:17:35.849Z,5344
2017-09-09T06:18:16.569Z,5320
2017-09-09T06:18:57.218Z,5360
2017-09-09T06:19:37.862Z,5260
2017-09-09T06:20:18.648Z,5156
2017-09-09T06:20:59.358Z,5152
2017-09-09T06:21:40.047Z,5148
2017-09-09T06:22:20.837Z,5144
2017-09-09T06:23:01.520Z,5160
2017-09-09T06:23:42.243Z,5300
2017-09-09T06:24:23.150Z,5604
2017-09-09T06:25:03.765Z,5656
2017-09-09T06:25:44.570Z,5732
2017-09-09T06:26:25.348Z,5808
2017-09-09T06:27:06.205Z,5920
2017-09-09T06:27:46.973Z,6036
2017-09-09T06:28:27.587Z,6160
2017-09-09T06:29:08.177Z,6248
2017-09-09T06:29:48.912Z,6276
2017-09-09T06:30:29.754Z,6248
2017-09-09T06:31:10.572Z,6164
2017-09-09T06:31:51.406Z,6036
2017-09-09T06:32:32.026Z,5936
2017-09-09T06:33:12.677Z,5856
2017-09-09T06:33:53.445Z,5800
2017-09-09T06:34:34.159Z,5880
2017-09-09T06:35:15.023Z,6112
2017-09-09T06:35:55.684Z,6356
2017-09-09T06:36:36.533Z,6588
2017-09-09T06:37:17.528Z,6844
2017-09-09T06:37:58.374Z,6956
2017-09-09T06:38:39.225Z,6964
2017-09-09T06:39:19.876Z,6928
2017-09-09T06:40:00.527Z,6936
2017-09-09T06:40:41.108Z,6944
2017-09-09T06:41:21.685Z,7156
2017-09-09T06:42:02.277Z,7596
2017-09-09T06:42:42.859Z,7944
2017-09-09T06:43:23.438Z,8024
2017-09-09T06:44:04.021Z,7924
2017-09-09T06:44:44.598Z,7740
2017-09-09T06:45:25.410Z,7616
2017-09-09T06:46:06.025Z,7644
2017-09-09T06:46:46.781Z,7664
2017-09-09T06:47:27.371Z,7436
2017-09-09T06:48:07.949Z,7076
2017-09-09T06:48:48.745Z,6652
2017-09-09T06:49:29.327Z,6304
2017-09-09T06:50:10.008Z,6156
2017-09-09T06:50:50.792Z,6156
2017-09-09T06:51:31.366Z,6224
2017-09-09T06:52:11.953Z,6404
2017-09-09T06:52:52.538Z,6596
2017-09-09T06:53:33.092Z,6652
2017-09-09T06:54:13.718Z,6524
2017-09-09T06:54:54.273Z,6344
2017-09-09T06:55:34.887Z,6208
2017-09-09T06:56:15.447Z,6356
2017-09-09T06:56:56.031Z,6756
2017-09-09T06:57:36.606Z,7276
2017-09-09T06:58:17.201Z,7924
2017-09-09T06:58:57.789Z,8624
2017-09-09T06:59:38.370Z,9220
2017-09-09T07:00:18.953Z,9780
2017-09-09T07:00:59.566Z,10696
2017-09-09T07:01:40.169Z,10944
2017-09-09T07:02:20.763Z,11044
2017-09-09T07:03:01.336Z,11376
2017-09-09T07:03:41.922Z,11852
2017-09-09T07:04:22.540Z,12552
2017-09-09T07:05:04.028Z,13540
2017-09-09T07:05:44.651Z,13772
2017-09-09T07:06:25.235Z,14032
2017-09-09T07:07:05.820Z,13996
2017-09-09T07:07:46.398Z,13500
2017-09-09T07:08:26.970Z,12732
2017-09-09T07:09:07.548Z,11836
2017-09-09T07:09:48.207Z,11080
2017-09-09T07:10:28.790Z,10940
2017-09-09T07:11:09.513Z,11468
2017-09-09T07:11:50.205Z,12376
2017-09-09T07:12:31.067Z,13200
2017-09-09T07:13:11.662Z,13648
2017-09-09T07:13:52.410Z,13644
2017-09-09T07:14:33.219Z,13488
2017-09-09T07:15:13.636Z,13768
2017-09-09T07:15:54.219Z,15056
2017-09-09T07:16:34.817Z,15420
2017-09-09T07:17:15.403Z,16220
2017-09-09T07:17:55.986Z,16680
2017-09-09T07:18:36.570Z,29152
2017-09-09T07:19:17.156Z,26144
2017-09-09T07:19:57.764Z,25152
2017-09-09T07:20:38.439Z,18464
2017-09-09T07:21:19.022Z,33664
2017-09-09T07:21:59.614Z,20160
2017-09-09T07:22:40.241Z,29280
2017-09-09T07:23:20.818Z,38720
2017-09-09T07:24:01.587Z,35744
2017-09-09T07:24:42.335Z,37056
2017-09-09T07:25:22.977Z,36480
2017-09-09T07:26:03.714Z,40576
2017-09-09T07:26:45.222Z,35776
2017-09-09T07:27:25.824Z,22912
2017-09-09T07:28:06.552Z,20928
2017-09-09T07:28:47.201Z,19328
2017-09-09T07:29:27.823Z,19552
2017-09-09T07:30:08.406Z,20992
2017-09-09T07:30:49.005Z,22784
2017-09-09T07:31:29.653Z,21536
2017-09-09T07:32:10.300Z,37824
2017-09-09T07:32:50.977Z,26176
2017-09-09T07:33:31.552Z,32160
2017-09-09T07:34:12.333Z,26816
2017-09-09T07:34:52.752Z,29376
2017-09-09T07:35:33.335Z,38112
2017-09-09T07:36:13.991Z,46752
2017-09-09T07:36:54.622Z,50304
2017-09-09T07:37:35.379Z,50880
2017-09-09T07:38:16.732Z,51200
2017-09-09T07:38:57.476Z,45376
2017-09-09T07:39:38.901Z,44992
2017-09-09T07:40:19.489Z,36064
2017-09-09T07:41:00.070Z,46016
2017-09-09T07:41:40.834Z,45664
2017-09-09T07:42:21.624Z,50848
2017-09-09T07:43:02.815Z,50560
2017-09-09T07:43:43.574Z,39712
2017-09-09T07:44:24.155Z,37408
2017-09-09T07:45:04.744Z,26464
2017-09-09T07:45:45.327Z,22912
2017-09-09T07:46:25.916Z,20992
2017-09-09T07:47:06.511Z,20416
2017-09-09T07:47:47.100Z,20064
2017-09-09T07:48:27.691Z,19360
2017-09-09T07:49:08.289Z,19616
2017-09-09T07:49:48.867Z,20000
2017-09-09T07:50:29.449Z,22944
2017-09-09T07:51:10.036Z,19104
2017-09-09T07:51:50.650Z,18592
2017-09-09T07:52:31.235Z,18848
2017-09-09T07:53:11.860Z,18208
2017-09-09T07:53:52.478Z,19776
2017-09-09T07:54:33.073Z,18688
2017-09-09T07:55:18.435Z,14572
2017-09-09T07:57:16.263Z,10268
2017-09-09T07:57:56.851Z,9752
2017-09-09T07:58:37.440Z,9520
2017-09-09T07:59:18.052Z,9492
2017-09-09T07:59:58.632Z,9660
2017-09-09T08:00:39.225Z,9876
2017-09-09T08:01:19.800Z,9952
2017-09-09T08:02:00.382Z,9876
2017-09-09T08:02:40.963Z,9768
2017-09-09T08:03:21.577Z,9664
2017-09-09T08:04:02.147Z,9736
2017-09-09T08:04:42.732Z,10080
2017-09-09T08:05:23.327Z,10568
2017-09-09T08:06:03.905Z,10852
2017-09-09T08:06:44.490Z,10772
2017-09-09T08:07:25.077Z,10492
2017-09-09T08:08:05.660Z,10228
2017-09-09T08:08:46.245Z,10124
2017-09-09T08:09:26.820Z,10308
2017-09-09T08:10:07.399Z,10816
2017-09-09T08:10:47.974Z,11536
2017-09-09T08:11:28.550Z,12248
2017-09-09T08:12:09.136Z,12588
2017-09-09T08:12:49.718Z,12456
2017-09-09T08:13:30.297Z,12056
2017-09-09T08:14:10.882Z,11732
2017-09-09T08:14:53.145Z,11648
2017-09-09T08:15:33.741Z,11968
2017-09-09T08:16:14.318Z,12060
2017-09-09T08:16:54.902Z,12164
2017-09-09T08:17:35.486Z,12280
2017-09-09T08:18:16.088Z,12300
2017-09-09T08:18:56.656Z,12076
2017-09-09T08:19:37.249Z,11556
2017-09-09T08:20:17.833Z,10972
2017-09-09T08:20:58.445Z,10668
2017-09-09T08:21:38.999Z,10764
2017-09-09T08:22:19.585Z,11164
2017-09-09T08:23:00.165Z,11664
2017-09-09T08:23:40.750Z,12124
2017-09-09T08:24:21.329Z,12560
2017-09-09T08:25:01.917Z,12876
2017-09-09T08:25:42.510Z,12996
2017-09-09T08:26:23.097Z,12956
2017-09-09T08:27:03.671Z,12828
2017-09-09T08:27:44.257Z,12592
2017-09-09T08:28:24.840Z,12212
2017-09-09T08:29:05.429Z,11672
2017-09-09T08:29:46.005Z,11104
2017-09-09T08:30:26.593Z,10512
2017-09-09T08:31:07.181Z,10044
2017-09-09T08:31:47.768Z,9792
2017-09-09T08:32:28.360Z,9796
2017-09-09T08:33:08.940Z,9948
2017-09-09T08:33:49.518Z,10204
2017-09-09T08:34:30.109Z,10440
2017-09-09T08:35:10.708Z,10672
2017-09-09T08:35:51.302Z,10872
2017-09-09T08:36:31.872Z,10852
2017-09-09T08:37:12.451Z,10596
2017-09-09T08:37:53.044Z,10164
2017-09-09T08:38:33.628Z,9704
2017-09-09T08:39:14.209Z,9500
2017-09-09T08:39:54.800Z,9688
2017-09-09T08:40:35.374Z,10176
2017-09-09T08:41:15.963Z,10644
2017-09-09T08:41:58.113Z,10772
2017-09-09T08:42:38.702Z,10388
2017-09-09T08:43:19.278Z,9660
2017-09-09T08:43:59.856Z,8896
2017-09-09T08:44:41.021Z,8284
2017-09-09T08:45:22.108Z,7880
2017-09-09T08:46:02.935Z,7668
2017-09-09T08:46:43.521Z,7616
2017-09-09T08:47:24.101Z,7736
2017-09-09T08:48:04.683Z,7976
2017-09-09T08:48:45.261Z,8160
2017-09-09T08:49:25.836Z,8100
2017-09-09T08:50:06.416Z,7840
2017-09-09T08:50:47.006Z,7564
2017-09-09T08:51:27.592Z,7464
2017-09-09T08:52:08.179Z,7628
2017-09-09T08:52:48.755Z,7972
2017-09-09T08:53:29.346Z,8336
2017-09-09T08:54:10.653Z,8596
2017-09-09T08:54:52.023Z,8720
2017-09-09T08:55:32.608Z,8680
2017-09-09T08:56:13.210Z,8440
2017-09-09T08:56:53.796Z,8000
2017-09-09T08:57:34.372Z,7516
2017-09-09T08:58:14.953Z,7136
2017-09-09T08:58:55.536Z,6936
2017-09-09T08:59:36.125Z,6916
2017-09-09T09:00:16.713Z,6992
2017-09-09T09:00:57.287Z,7076
2017-09-09T09:01:37.877Z,7052
2017-09-09T09:02:18.458Z,6872
2017-09-09T09:02:59.042Z,6508
2017-09-09T09:03:39.628Z,6060
2017-09-09T09:04:20.224Z,5672
2017-09-09T09:05:00.799Z,5440
2017-09-09T09:05:42.342Z,5404
2017-09-09T09:06:22.914Z,5528
2017-09-09T09:07:03.496Z,5704
2017-09-09T09:07:44.083Z,5800
2017-09-09T09:08:24.667Z,5760
2017-09-09T09:09:05.246Z,5632
2017-09-09T09:09:45.822Z,5472
2017-09-09T09:10:26.408Z,5360
2017-09-09T09:11:06.997Z,5300
2017-09-09T09:11:47.575Z,5312
2017-09-09T09:12:28.148Z,5368
2017-09-09T09:13:08.732Z,5352
2017-09-09T09:13:49.310Z,5228
2017-09-09T09:14:29.895Z,5120
2017-09-09T09:15:10.478Z,5172
2017-09-09T09:15:51.639Z,5368
2017-09-09T09:16:33.030Z,5572
2017-09-09T09:17:14.520Z,5720
2017-09-09T09:17:55.105Z,5928
2017-09-09T09:18:35.676Z,6380
2017-09-09T09:19:16.262Z,7092
2017-09-09T09:19:56.849Z,7868
2017-09-09T09:20:37.423Z,8456
2017-09-09T09:21:18.020Z,8692
2017-09-09T09:21:58.608Z,8556
2017-09-09T09:22:39.185Z,8196
2017-09-09T09:23:19.771Z,7844
2017-09-09T09:24:00.350Z,7724
2017-09-09T09:24:40.925Z,7856
2017-09-09T09:25:21.500Z,7996
2017-09-09T09:26:02.079Z,7996
2017-09-09T09:26:42.670Z,7960
2017-09-09T09:27:23.258Z,8060
2017-09-09T09:28:03.835Z,8336
2017-09-09T09:28:44.432Z,8644
2017-09-09T09:29:25.007Z,8784
2017-09-09T09:30:05.785Z,8764
2017-09-09T09:30:46.467Z,8788
2017-09-09T09:31:27.049Z,8864
2017-09-09T09:32:07.876Z,8820